Airfield :
LOGIN :

Register | Disclaimer

   EN    FR    IT 

 










Legend :    VFR   Marginal VFR   IFR   Intensive IFR   Very Intensive IFR
Visi :
Ceiling :
>= 8 km
>= 3000ft
5 to 8 km
1000 to 3000 ft
1500m to 5 km
500 to 1000 ft
800 to 1500m
200 to 500 ft
< 800m
< 200 ft
Symbols :   Thunderstorms  Fog  Heavy snow  Heavy precipitations  Wind > 20 kt
SIGMETs :     Misc.  Thunderstorms  Icing  Turbulence  Mountain Waves  Volcanic Ashes






- Airport Elevation : 776 ft
- IATA code : RMS


ETAR - Ramstein Air Base

CURRENT METAR :
  • 250656Z 23011G18KT 9999 -RA BKN013 OVC026 07/07 A2967 RMK AO2A VIS 4000 RWY08/26 VIS 4000 RWY09/27 SLP053 P0004 T00720071 FZRANO $

EXPIRED METARs :
  • 250556Z 23010G19KT 9999 -RA OVC014 07/07 A2968 RMK AO2A PRESFR SLP057 P//// 6//// T00730073 10089 20073 FZRANO $
  • 250526Z 23010KT 9000 -RA OVC015 08/08 A2971 RMK AO2A RAE24RAB24 SLPNO ALSTG ESTMD RVRNO FZRANO $
  • 250456Z 23012G18KT 9000 -RA OVC015 08/08 A2971 RMK SLPNO 10094 20076 RVRNO FZRANO
  • 250426Z 23012G18KT 9999 -RA OVC016 08/08 A2972 RMK AO2A CIG 015 RWY08 SLP069 FZRANO $

TAF TAF ETAR
Valid from the 25 at 02:00 until the 26 at 08:00 UTC


250200Z 2502/2608 23010G20KT 9000 -SHRA BKN010 610607 510004 QNH2960INS
BECMG 2511/2512 25010G20KT 9999 NSW BKN025 610503 510004 QNH2957INS
BECMG 2514/2515 25010G20KT 9999 SCT025 510004 QNH2955INS
BECMG 2517/2518 24012G20KT 9000 -SHRA BKN025 610404 510004 QNH2947INS
BECMG 2523/2524 24015G30KT 8000 -SHRA BKN020 610404 520004 QNH2945INS
BECMG 2602/2603 25012G25KT 9000 -SHRA BKN030 610303 510004 QNH2945INS
TEMPO 2606/2608 8000 -SN TX08/2502Z TN03/2602Z



MET'MAP, your aeronautical weather chart ! - Copyright ORBIFLY December 2007 - Disclaimer

ORBIFLY MET'MAP TEAM :

Programming & Development : Alexandra Zaïnal
Concept & original design : Baudouin d'Aumeries
Assistance for programming : Marc-Olivier Méhu
Technical & hardware support : Manuel Goepfert

Contact : metmap@orbifly.com




SOURCES & CREDITS :

   NOAA